sensor_id;sensor_type;location;lat;lon;timestamp;P1;P2;P0
75960;PMS7003;64644;48.914;2.254;2023-06-26T00:00:28;5.50;5.50;4.00
75960;PMS7003;64644;48.914;2.254;2023-06-26T00:02:55;4.25;4.25;3.25
75960;PMS7003;64644;48.914;2.254;2023-06-26T00:05:20;6.25;5.00;3.00
75960;PMS7003;64644;48.914;2.254;2023-06-26T00:07:45;5.25;5.25;4.00
75960;PMS7003;64644;48.914;2.254;2023-06-26T00:10:11;4.75;4.75;3.25
75960;PMS7003;64644;48.914;2.254;2023-06-26T00:12:36;4.00;4.00;3.00
75960;PMS7003;64644;48.914;2.254;2023-06-26T00:15:01;4.75;4.75;3.50
75960;PMS7003;64644;48.914;2.254;2023-06-26T00:17:27;5.00;4.25;4.00
75960;PMS7003;64644;48.914;2.254;2023-06-26T00:19:52;5.00;5.00;5.00
75960;PMS7003;64644;48.914;2.254;2023-06-26T00:22:18;5.50;4.75;3.75
75960;PMS7003;64644;48.914;2.254;2023-06-26T00:24:44;5.50;5.50;3.50
75960;PMS7003;64644;48.914;2.254;2023-06-26T00:27:10;6.00;6.00;5.00
75960;PMS7003;64644;48.914;2.254;2023-06-26T00:29:35;5.75;5.75;4.00
75960;PMS7003;64644;48.914;2.254;2023-06-26T00:32:00;5.25;5.25;3.50
75960;PMS7003;64644;48.914;2.254;2023-06-26T00:34:26;7.00;6.25;3.50
75960;PMS7003;64644;48.914;2.254;2023-06-26T00:36:51;5.00;5.00;4.00
75960;PMS7003;64644;48.914;2.254;2023-06-26T00:39:17;7.50;6.00;4.25
75960;PMS7003;64644;48.914;2.254;2023-06-26T00:41:42;5.25;5.25;3.00
75960;PMS7003;64644;48.914;2.254;2023-06-26T00:44:08;6.25;5.50;4.00
75960;PMS7003;64644;48.914;2.254;2023-06-26T00:46:33;7.00;5.50;4.00
75960;PMS7003;64644;48.914;2.254;2023-06-26T00:49:00;6.00;5.00;3.00
75960;PMS7003;64644;48.914;2.254;2023-06-26T00:51:27;7.75;7.00;4.50
75960;PMS7003;64644;48.914;2.254;2023-06-26T00:53:53;5.75;5.50;4.00
75960;PMS7003;64644;48.914;2.254;2023-06-26T00:56:19;5.00;5.00;3.00
75960;PMS7003;64644;48.914;2.254;2023-06-26T00:58:45;4.75;4.25;3.25
75960;PMS7003;64644;48.914;2.254;2023-06-26T01:01:10;3.75;3.75;2.50
75960;PMS7003;64644;48.914;2.254;2023-06-26T01:03:40;5.25;5.25;3.75
75960;PMS7003;64644;48.914;2.254;2023-06-26T01:06:06;5.00;5.00;3.00
75960;PMS7003;64644;48.914;2.254;2023-06-26T01:08:36;8.00;6.00;3.50
75960;PMS7003;64644;48.914;2.254;2023-06-26T01:11:02;6.00;5.00;3.00
75960;PMS7003;64644;48.914;2.254;2023-06-26T01:13:28;5.00;5.00;3.25
75960;PMS7003;64644;48.914;2.254;2023-06-26T01:15:54;6.00;6.00;4.50
75960;PMS7003;64644;48.914;2.254;2023-06-26T01:18:20;8.25;6.00;4.25
75960;PMS7003;64644;48.914;2.254;2023-06-26T01:20:46;5.00;5.00;3.75
75960;PMS7003;64644;48.914;2.254;2023-06-26T01:28:21;5.00;5.00;3.00
75960;PMS7003;64644;48.914;2.254;2023-06-26T01:30:48;4.25;3.25;2.75
75960;PMS7003;64644;48.914;2.254;2023-06-26T01:33:15;3.00;3.00;2.75
75960;PMS7003;64644;48.914;2.254;2023-06-26T01:35:41;5.25;5.25;3.00
75960;PMS7003;64644;48.914;2.254;2023-06-26T01:38:16;4.00;4.00;2.75
75960;PMS7003;64644;48.914;2.254;2023-06-26T01:40:43;6.50;5.00;3.75
75960;PMS7003;64644;48.914;2.254;2023-06-26T01:43:19;7.00;5.75;3.00
75960;PMS7003;64644;48.914;2.254;2023-06-26T01:46:31;6.25;6.25;3.50
75960;PMS7003;64644;48.914;2.254;2023-06-26T01:49:06;4.75;4.75;3.25
75960;PMS7003;64644;48.914;2.254;2023-06-26T01:54:39;5.00;3.25;2.25
75960;PMS7003;64644;48.914;2.254;2023-06-26T01:57:13;5.00;3.25;2.25
75960;PMS7003;64644;48.914;2.254;2023-06-26T01:59:41;5.00;5.00;3.00
75960;PMS7003;64644;48.914;2.254;2023-06-26T02:02:07;3.00;3.00;2.00
75960;PMS7003;64644;48.914;2.254;2023-06-26T02:04:33;4.00;3.00;2.00
75960;PMS7003;64644;48.914;2.254;2023-06-26T02:06:58;3.00;3.00;2.00
75960;PMS7003;64644;48.914;2.254;2023-06-26T02:09:24;3.50;3.50;3.00
75960;PMS7003;64644;48.914;2.254;2023-06-26T02:11:49;3.50;2.75;2.00
75960;PMS7003;64644;48.914;2.254;2023-06-26T02:14:14;2.75;2.75;1.25
75960;PMS7003;64644;48.914;2.254;2023-06-26T02:16:40;4.25;3.25;2.00
75960;PMS7003;64644;48.914;2.254;2023-06-26T02:19:05;3.50;3.50;2.00
75960;PMS7003;64644;48.914;2.254;2023-06-26T02:21:30;2.50;2.50;2.00
75960;PMS7003;64644;48.914;2.254;2023-06-26T02:23:56;3.50;3.00;2.00
75960;PMS7003;64644;48.914;2.254;2023-06-26T02:26:21;2.00;2.00;1.00
75960;PMS7003;64644;48.914;2.254;2023-06-26T02:28:47;4.00;3.00;2.00
75960;PMS7003;64644;48.914;2.254;2023-06-26T02:31:12;2.00;2.00;0.75
75960;PMS7003;64644;48.914;2.254;2023-06-26T02:33:38;3.25;1.50;1.25
75960;PMS7003;64644;48.914;2.254;2023-06-26T02:36:04;1.00;1.00;1.00
75960;PMS7003;64644;48.914;2.254;2023-06-26T02:38:29;4.25;2.00;2.00
75960;PMS7003;64644;48.914;2.254;2023-06-26T02:40:55;2.50;2.50;1.50
75960;PMS7003;64644;48.914;2.254;2023-06-26T02:43:20;4.50;1.50;0.50
75960;PMS7003;64644;48.914;2.254;2023-06-26T02:45:45;3.00;1.75;1.00
75960;PMS7003;64644;48.914;2.254;2023-06-26T02:48:11;1.75;1.75;1.00
75960;PMS7003;64644;48.914;2.254;2023-06-26T02:50:36;4.25;2.00;1.50
75960;PMS7003;64644;48.914;2.254;2023-06-26T02:53:01;6.00;3.25;3.00
75960;PMS7003;64644;48.914;2.254;2023-06-26T02:55:26;3.00;2.00;1.00
75960;PMS7003;64644;48.914;2.254;2023-06-26T02:57:52;2.00;2.00;1.00
75960;PMS7003;64644;48.914;2.254;2023-06-26T03:00:17;1.00;1.00;1.00
75960;PMS7003;64644;48.914;2.254;2023-06-26T03:02:43;2.25;2.25;1.50
75960;PMS7003;64644;48.914;2.254;2023-06-26T03:05:08;2.75;2.75;1.00
75960;PMS7003;64644;48.914;2.254;2023-06-26T03:07:33;3.00;1.50;1.50
75960;PMS7003;64644;48.914;2.254;2023-06-26T03:09:59;3.00;2.00;1.25
75960;PMS7003;64644;48.914;2.254;2023-06-26T03:12:25;2.50;2.00;1.50
75960;PMS7003;64644;48.914;2.254;2023-06-26T03:14:50;2.50;1.50;1.50
75960;PMS7003;64644;48.914;2.254;2023-06-26T03:17:16;3.75;3.00;1.00
75960;PMS7003;64644;48.914;2.254;2023-06-26T03:19:41;3.00;2.25;2.00
75960;PMS7003;64644;48.914;2.254;2023-06-26T03:22:07;3.00;2.00;1.25
75960;PMS7003;64644;48.914;2.254;2023-06-26T03:24:32;4.00;2.00;1.00
75960;PMS7003;64644;48.914;2.254;2023-06-26T03:26:58;3.00;3.00;1.50
75960;PMS7003;64644;48.914;2.254;2023-06-26T03:29:24;3.25;2.75;2.00
75960;PMS7003;64644;48.914;2.254;2023-06-26T03:31:50;2.00;2.00;1.00
75960;PMS7003;64644;48.914;2.254;2023-06-26T03:34:15;2.25;2.25;1.75
75960;PMS7003;64644;48.914;2.254;2023-06-26T03:36:41;2.00;2.00;1.00
75960;PMS7003;64644;48.914;2.254;2023-06-26T03:39:06;2.75;2.75;2.00
75960;PMS7003;64644;48.914;2.254;2023-06-26T03:41:31;3.25;3.25;1.75
75960;PMS7003;64644;48.914;2.254;2023-06-26T03:43:56;4.50;4.00;2.75
75960;PMS7003;64644;48.914;2.254;2023-06-26T03:46:22;4.50;3.00;2.50
75960;PMS7003;64644;48.914;2.254;2023-06-26T03:48:47;4.50;4.25;2.50
75960;PMS7003;64644;48.914;2.254;2023-06-26T03:51:13;2.25;2.25;2.00
75960;PMS7003;64644;48.914;2.254;2023-06-26T03:53:39;4.25;4.25;3.00
75960;PMS7003;64644;48.914;2.254;2023-06-26T03:56:04;3.00;3.00;2.00
75960;PMS7003;64644;48.914;2.254;2023-06-26T03:58:29;4.75;3.00;2.50
75960;PMS7003;64644;48.914;2.254;2023-06-26T04:00:55;4.00;4.00;3.00
75960;PMS7003;64644;48.914;2.254;2023-06-26T04:03:20;4.75;4.75;2.00
75960;PMS7003;64644;48.914;2.254;2023-06-26T04:05:46;4.75;3.75;2.25
75960;PMS7003;64644;48.914;2.254;2023-06-26T04:08:11;5.25;4.00;3.00
75960;PMS7003;64644;48.914;2.254;2023-06-26T04:10:36;6.75;5.50;4.00
75960;PMS7003;64644;48.914;2.254;2023-06-26T04:13:02;3.50;3.00;3.00
75960;PMS7003;64644;48.914;2.254;2023-06-26T04:15:27;8.00;5.00;2.25
75960;PMS7003;64644;48.914;2.254;2023-06-26T04:17:52;6.75;4.25;3.00
75960;PMS7003;64644;48.914;2.254;2023-06-26T04:20:18;5.50;4.75;3.00
75960;PMS7003;64644;48.914;2.254;2023-06-26T04:22:44;4.75;4.00;2.00
75960;PMS7003;64644;48.914;2.254;2023-06-26T04:25:09;3.50;3.50;2.00
75960;PMS7003;64644;48.914;2.254;2023-06-26T04:27:36;3.00;3.00;3.00
75960;PMS7003;64644;48.914;2.254;2023-06-26T04:30:02;3.50;3.00;3.00
75960;PMS7003;64644;48.914;2.254;2023-06-26T04:32:27;3.75;3.75;3.00
75960;PMS7003;64644;48.914;2.254;2023-06-26T04:34:53;2.25;2.25;2.25
75960;PMS7003;64644;48.914;2.254;2023-06-26T04:37:18;4.00;4.00;2.50
75960;PMS7003;64644;48.914;2.254;2023-06-26T04:39:44;3.50;3.25;2.50
75960;PMS7003;64644;48.914;2.254;2023-06-26T04:42:10;3.75;3.50;2.00
75960;PMS7003;64644;48.914;2.254;2023-06-26T04:44:37;4.00;4.00;3.50
75960;PMS7003;64644;48.914;2.254;2023-06-26T04:47:02;4.00;3.00;2.00
75960;PMS7003;64644;48.914;2.254;2023-06-26T04:49:28;4.50;3.25;3.00
75960;PMS7003;64644;48.914;2.254;2023-06-26T04:51:55;3.75;2.00;1.50
75960;PMS7003;64644;48.914;2.254;2023-06-26T04:54:20;3.25;2.50;2.00
75960;PMS7003;64644;48.914;2.254;2023-06-26T04:56:45;4.00;4.00;3.00
75960;PMS7003;64644;48.914;2.254;2023-06-26T04:59:12;3.75;3.75;2.00
75960;PMS7003;64644;48.914;2.254;2023-06-26T05:01:39;5.25;4.25;3.00
75960;PMS7003;64644;48.914;2.254;2023-06-26T05:04:05;4.00;2.75;2.00
75960;PMS7003;64644;48.914;2.254;2023-06-26T05:06:30;5.25;3.75;2.50
75960;PMS7003;64644;48.914;2.254;2023-06-26T05:08:56;3.00;3.00;3.00
75960;PMS7003;64644;48.914;2.254;2023-06-26T05:11:21;2.00;2.00;2.00
75960;PMS7003;64644;48.914;2.254;2023-06-26T05:13:47;3.25;3.25;2.00
75960;PMS7003;64644;48.914;2.254;2023-06-26T05:16:12;5.75;2.75;2.00
75960;PMS7003;64644;48.914;2.254;2023-06-26T05:18:37;3.25;3.25;3.00
75960;PMS7003;64644;48.914;2.254;2023-06-26T05:21:03;4.00;2.00;2.00
75960;PMS7003;64644;48.914;2.254;2023-06-26T05:23:32;5.00;3.50;2.75
75960;PMS7003;64644;48.914;2.254;2023-06-26T05:25:58;3.00;3.00;2.00
75960;PMS7003;64644;48.914;2.254;2023-06-26T05:28:25;3.00;3.00;1.75
75960;PMS7003;64644;48.914;2.254;2023-06-26T05:30:52;5.00;4.25;3.00
75960;PMS7003;64644;48.914;2.254;2023-06-26T05:33:18;4.75;4.00;2.75
75960;PMS7003;64644;48.914;2.254;2023-06-26T05:35:46;5.00;5.00;3.00
75960;PMS7003;64644;48.914;2.254;2023-06-26T05:38:13;3.00;3.00;2.00
75960;PMS7003;64644;48.914;2.254;2023-06-26T05:40:39;3.75;3.75;2.25
75960;PMS7003;64644;48.914;2.254;2023-06-26T05:43:05;5.00;5.00;3.50
75960;PMS7003;64644;48.914;2.254;2023-06-26T05:45:31;6.50;5.50;3.25
75960;PMS7003;64644;48.914;2.254;2023-06-26T05:47:57;4.75;4.75;3.25
75960;PMS7003;64644;48.914;2.254;2023-06-26T05:50:23;5.25;4.00;3.00
75960;PMS7003;64644;48.914;2.254;2023-06-26T05:52:48;5.00;4.75;3.00
75960;PMS7003;64644;48.914;2.254;2023-06-26T05:55:14;6.50;5.50;4.25
75960;PMS7003;64644;48.914;2.254;2023-06-26T05:57:40;7.00;5.00;3.00
75960;PMS7003;64644;48.914;2.254;2023-06-26T06:00:05;6.50;6.00;5.00
75960;PMS7003;64644;48.914;2.254;2023-06-26T06:02:35;7.25;7.00;4.00
75960;PMS7003;64644;48.914;2.254;2023-06-26T06:05:01;6.50;5.75;4.50
75960;PMS7003;64644;48.914;2.254;2023-06-26T06:07:27;8.75;8.75;5.00
75960;PMS7003;64644;48.914;2.254;2023-06-26T06:09:52;6.75;5.25;4.00
75960;PMS7003;64644;48.914;2.254;2023-06-26T06:12:17;8.25;6.75;5.00
75960;PMS7003;64644;48.914;2.254;2023-06-26T06:14:42;9.00;5.75;4.00
75960;PMS7003;64644;48.914;2.254;2023-06-26T06:17:08;7.75;6.50;4.00
75960;PMS7003;64644;48.914;2.254;2023-06-26T06:19:33;2.50;1.75;1.00
75960;PMS7003;64644;48.914;2.254;2023-06-26T06:21:58;8.25;6.00;4.00
75960;PMS7003;64644;48.914;2.254;2023-06-26T06:24:24;7.50;6.00;5.00
75960;PMS7003;64644;48.914;2.254;2023-06-26T06:26:49;7.00;7.00;4.50
75960;PMS7003;64644;48.914;2.254;2023-06-26T06:29:14;6.75;5.50;4.00
75960;PMS7003;64644;48.914;2.254;2023-06-26T06:31:40;8.00;4.00;2.50
75960;PMS7003;64644;48.914;2.254;2023-06-26T06:34:05;5.50;5.50;4.00
75960;PMS7003;64644;48.914;2.254;2023-06-26T06:36:30;7.00;5.75;4.00
75960;PMS7003;64644;48.914;2.254;2023-06-26T06:38:56;5.50;5.50;4.50
75960;PMS7003;64644;48.914;2.254;2023-06-26T06:41:21;5.75;4.00;3.75
75960;PMS7003;64644;48.914;2.254;2023-06-26T06:43:46;5.00;5.00;3.75
75960;PMS7003;64644;48.914;2.254;2023-06-26T06:46:12;9.00;5.75;4.75
75960;PMS7003;64644;48.914;2.254;2023-06-26T06:48:37;4.25;3.50;3.00
75960;PMS7003;64644;48.914;2.254;2023-06-26T06:51:03;6.00;5.25;3.00
75960;PMS7003;64644;48.914;2.254;2023-06-26T06:53:28;6.75;6.00;4.50
75960;PMS7003;64644;48.914;2.254;2023-06-26T06:55:54;8.25;6.25;4.00
75960;PMS7003;64644;48.914;2.254;2023-06-26T06:58:19;5.25;5.00;4.00
75960;PMS7003;64644;48.914;2.254;2023-06-26T07:00:44;5.50;5.50;4.00
75960;PMS7003;64644;48.914;2.254;2023-06-26T07:03:10;6.25;5.00;3.00
75960;PMS7003;64644;48.914;2.254;2023-06-26T07:05:36;6.00;6.00;4.00
75960;PMS7003;64644;48.914;2.254;2023-06-26T07:08:02;4.00;4.00;3.00
75960;PMS7003;64644;48.914;2.254;2023-06-26T07:10:28;6.25;6.25;4.00
75960;PMS7003;64644;48.914;2.254;2023-06-26T07:12:53;4.00;4.00;4.00
75960;PMS7003;64644;48.914;2.254;2023-06-26T07:15:19;7.00;7.00;5.00
75960;PMS7003;64644;48.914;2.254;2023-06-26T07:17:44;6.25;6.25;4.25
75960;PMS7003;64644;48.914;2.254;2023-06-26T07:20:09;10.25;9.00;5.00
75960;PMS7003;64644;48.914;2.254;2023-06-26T07:22:40;7.50;6.50;4.75
75960;PMS7003;64644;48.914;2.254;2023-06-26T07:25:05;9.00;7.00;5.00
75960;PMS7003;64644;48.914;2.254;2023-06-26T07:27:34;6.00;4.25;4.00
75960;PMS7003;64644;48.914;2.254;2023-06-26T07:29:59;5.25;5.25;3.75
75960;PMS7003;64644;48.914;2.254;2023-06-26T07:32:24;6.75;6.00;4.25
75960;PMS7003;64644;48.914;2.254;2023-06-26T07:34:50;8.50;7.75;5.00
75960;PMS7003;64644;48.914;2.254;2023-06-26T07:37:15;8.00;6.25;5.00
75960;PMS7003;64644;48.914;2.254;2023-06-26T07:39:40;6.75;6.00;5.00
75960;PMS7003;64644;48.914;2.254;2023-06-26T07:42:06;5.00;5.00;4.00
75960;PMS7003;64644;48.914;2.254;2023-06-26T07:44:31;5.00;5.00;3.75
75960;PMS7003;64644;48.914;2.254;2023-06-26T07:46:56;6.00;6.00;4.00
75960;PMS7003;64644;48.914;2.254;2023-06-26T07:49:22;4.25;4.25;3.00
75960;PMS7003;64644;48.914;2.254;2023-06-26T07:51:48;8.75;7.25;4.75
75960;PMS7003;64644;48.914;2.254;2023-06-26T07:54:13;5.50;5.00;3.00
75960;PMS7003;64644;48.914;2.254;2023-06-26T07:56:51;5.25;4.00;3.75
75960;PMS7003;64644;48.914;2.254;2023-06-26T07:59:31;3.00;3.00;2.50
75960;PMS7003;64644;48.914;2.254;2023-06-26T08:01:57;4.50;4.50;3.00
75960;PMS7003;64644;48.914;2.254;2023-06-26T08:04:23;6.25;6.25;3.25
75960;PMS7003;64644;48.914;2.254;2023-06-26T08:06:51;5.00;5.00;3.50
75960;PMS7003;64644;48.914;2.254;2023-06-26T08:09:22;3.25;3.25;2.25
75960;PMS7003;64644;48.914;2.254;2023-06-26T08:11:49;3.00;3.00;2.25
75960;PMS7003;64644;48.914;2.254;2023-06-26T08:14:15;4.00;3.00;2.00
75960;PMS7003;64644;48.914;2.254;2023-06-26T08:16:41;4.75;4.50;3.00
75960;PMS7003;64644;48.914;2.254;2023-06-26T08:19:08;4.00;4.00;3.00
75960;PMS7003;64644;48.914;2.254;2023-06-26T08:21:34;6.00;6.00;4.00
75960;PMS7003;64644;48.914;2.254;2023-06-26T08:24:00;4.50;4.50;3.00
75960;PMS7003;64644;48.914;2.254;2023-06-26T08:26:25;4.00;4.00;2.75
75960;PMS7003;64644;48.914;2.254;2023-06-26T08:28:50;7.00;3.50;2.00
75960;PMS7003;64644;48.914;2.254;2023-06-26T08:31:16;5.00;4.00;2.25
75960;PMS7003;64644;48.914;2.254;2023-06-26T08:33:42;4.00;4.00;3.00
75960;PMS7003;64644;48.914;2.254;2023-06-26T08:36:07;4.00;3.75;3.25
75960;PMS7003;64644;48.914;2.254;2023-06-26T08:38:33;5.25;5.25;4.00
75960;PMS7003;64644;48.914;2.254;2023-06-26T08:40:58;5.00;4.00;3.75
75960;PMS7003;64644;48.914;2.254;2023-06-26T08:43:24;4.00;4.00;3.25
75960;PMS7003;64644;48.914;2.254;2023-06-26T08:45:51;5.00;5.00;3.00
75960;PMS7003;64644;48.914;2.254;2023-06-26T08:48:17;6.00;6.00;4.00
75960;PMS7003;64644;48.914;2.254;2023-06-26T08:50:43;3.25;3.25;3.25
75960;PMS7003;64644;48.914;2.254;2023-06-26T08:56:15;3.50;2.25;2.00
75960;PMS7003;64644;48.914;2.254;2023-06-26T08:58:43;4.00;4.00;3.00
75960;PMS7003;64644;48.914;2.254;2023-06-26T09:01:09;5.50;3.25;2.75
75960;PMS7003;64644;48.914;2.254;2023-06-26T09:03:35;3.00;2.75;2.00
75960;PMS7003;64644;48.914;2.254;2023-06-26T09:06:01;3.00;3.00;2.75
75960;PMS7003;64644;48.914;2.254;2023-06-26T09:08:26;5.25;4.25;2.25
75960;PMS7003;64644;48.914;2.254;2023-06-26T09:10:52;4.00;4.00;3.00
75960;PMS7003;64644;48.914;2.254;2023-06-26T09:13:18;4.00;2.00;2.00
75960;PMS7003;64644;48.914;2.254;2023-06-26T09:15:44;5.25;4.25;3.00
75960;PMS7003;64644;48.914;2.254;2023-06-26T09:18:10;4.00;4.00;3.00
75960;PMS7003;64644;48.914;2.254;2023-06-26T09:20:36;4.00;4.00;3.00
75960;PMS7003;64644;48.914;2.254;2023-06-26T09:23:02;5.25;5.00;3.25
75960;PMS7003;64644;48.914;2.254;2023-06-26T09:25:28;4.25;4.00;3.00
75960;PMS7003;64644;48.914;2.254;2023-06-26T09:27:54;4.00;3.00;2.25
75960;PMS7003;64644;48.914;2.254;2023-06-26T09:30:20;4.75;3.25;3.00
75960;PMS7003;64644;48.914;2.254;2023-06-26T09:32:46;4.50;4.50;2.75
75960;PMS7003;64644;48.914;2.254;2023-06-26T09:35:12;4.00;3.00;3.00
75960;PMS7003;64644;48.914;2.254;2023-06-26T09:37:37;2.00;2.00;2.00
75960;PMS7003;64644;48.914;2.254;2023-06-26T09:40:03;6.50;3.50;3.00
75960;PMS7003;64644;48.914;2.254;2023-06-26T09:42:29;4.00;4.00;3.00
75960;PMS7003;64644;48.914;2.254;2023-06-26T09:44:55;4.25;4.00;3.00
75960;PMS7003;64644;48.914;2.254;2023-06-26T09:47:21;2.75;2.75;2.00
75960;PMS7003;64644;48.914;2.254;2023-06-26T09:49:46;3.75;3.00;3.00
75960;PMS7003;64644;48.914;2.254;2023-06-26T09:52:16;5.00;2.25;2.00
75960;PMS7003;64644;48.914;2.254;2023-06-26T09:54:45;4.25;4.00;3.00
75960;PMS7003;64644;48.914;2.254;2023-06-26T09:57:15;5.50;4.00;3.00
75960;PMS7003;64644;48.914;2.254;2023-06-26T09:59:42;1.00;0.00;0.00
75960;PMS7003;64644;48.914;2.254;2023-06-26T10:02:10;3.00;3.00;2.00
75960;PMS7003;64644;48.914;2.254;2023-06-26T10:04:36;3.50;3.00;2.25
75960;PMS7003;64644;48.914;2.254;2023-06-26T10:07:04;3.00;3.00;2.00
75960;PMS7003;64644;48.914;2.254;2023-06-26T10:09:31;3.25;2.50;2.00
75960;PMS7003;64644;48.914;2.254;2023-06-26T10:14:26;3.75;3.75;2.75
75960;PMS7003;64644;48.914;2.254;2023-06-26T10:16:53;3.50;3.50;2.50
75960;PMS7003;64644;48.914;2.254;2023-06-26T10:19:23;4.75;4.00;3.00
75960;PMS7003;64644;48.914;2.254;2023-06-26T10:21:52;1.50;1.50;1.25
75960;PMS7003;64644;48.914;2.254;2023-06-26T10:24:19;6.75;5.75;4.25
75960;PMS7003;64644;48.914;2.254;2023-06-26T10:26:45;4.25;4.00;2.00
75960;PMS7003;64644;48.914;2.254;2023-06-26T10:29:15;4.75;3.00;2.00
75960;PMS7003;64644;48.914;2.254;2023-06-26T10:31:43;4.00;3.50;2.50
75960;PMS7003;64644;48.914;2.254;2023-06-26T10:34:15;3.00;2.50;2.25
75960;PMS7003;64644;48.914;2.254;2023-06-26T10:36:41;2.00;2.00;2.00
75960;PMS7003;64644;48.914;2.254;2023-06-26T10:39:06;3.00;3.00;2.00
75960;PMS7003;64644;48.914;2.254;2023-06-26T10:41:38;2.75;2.00;2.00
75960;PMS7003;64644;48.914;2.254;2023-06-26T10:44:11;2.75;2.75;2.00
75960;PMS7003;64644;48.914;2.254;2023-06-26T10:49:15;2.50;2.50;2.00
75960;PMS7003;64644;48.914;2.254;2023-06-26T10:51:48;3.25;3.25;2.00
75960;PMS7003;64644;48.914;2.254;2023-06-26T10:54:15;3.75;2.50;2.50
75960;PMS7003;64644;48.914;2.254;2023-06-26T10:56:46;4.75;3.75;3.00
75960;PMS7003;64644;48.914;2.254;2023-06-26T10:59:20;7.75;7.00;5.25
75960;PMS7003;64644;48.914;2.254;2023-06-26T11:01:53;8.50;7.00;4.50
75960;PMS7003;64644;48.914;2.254;2023-06-26T11:04:35;6.25;4.75;4.00
75960;PMS7003;64644;48.914;2.254;2023-06-26T11:07:18;5.50;5.50;3.75
75960;PMS7003;64644;48.914;2.254;2023-06-26T11:15:10;4.25;4.25;3.75
75960;PMS7003;64644;48.914;2.254;2023-06-26T11:17:36;3.00;3.00;1.75
75960;PMS7003;64644;48.914;2.254;2023-06-26T11:20:12;3.25;3.25;2.75
75960;PMS7003;64644;48.914;2.254;2023-06-26T11:22:40;3.75;3.75;2.50
75960;PMS7003;64644;48.914;2.254;2023-06-26T11:25:06;3.25;3.25;3.00
75960;PMS7003;64644;48.914;2.254;2023-06-26T11:30:01;4.50;3.50;2.25
75960;PMS7003;64644;48.914;2.254;2023-06-26T11:32:27;5.00;3.50;3.25
75960;PMS7003;64644;48.914;2.254;2023-06-26T11:34:54;5.25;3.50;2.50
75960;PMS7003;64644;48.914;2.254;2023-06-26T11:37:20;3.25;3.25;2.50
75960;PMS7003;64644;48.914;2.254;2023-06-26T11:39:46;3.00;3.00;2.50
75960;PMS7003;64644;48.914;2.254;2023-06-26T11:42:11;2.75;2.75;1.75
75960;PMS7003;64644;48.914;2.254;2023-06-26T11:44:43;4.25;3.50;2.25
75960;PMS7003;64644;48.914;2.254;2023-06-26T11:47:18;2.75;2.75;2.50
75960;PMS7003;64644;48.914;2.254;2023-06-26T11:49:45;5.25;4.75;3.50
75960;PMS7003;64644;48.914;2.254;2023-06-26T11:52:12;4.75;4.75;3.00
75960;PMS7003;64644;48.914;2.254;2023-06-26T11:54:38;3.00;3.00;3.00
75960;PMS7003;64644;48.914;2.254;2023-06-26T11:57:04;3.75;3.00;2.00
75960;PMS7003;64644;48.914;2.254;2023-06-26T11:59:36;3.00;3.00;2.00
75960;PMS7003;64644;48.914;2.254;2023-06-26T12:02:04;4.00;4.00;3.00
75960;PMS7003;64644;48.914;2.254;2023-06-26T12:04:35;5.00;5.00;3.00
75960;PMS7003;64644;48.914;2.254;2023-06-26T12:07:06;5.25;5.25;4.25
75960;PMS7003;64644;48.914;2.254;2023-06-26T12:09:33;3.50;2.00;2.00
75960;PMS7003;64644;48.914;2.254;2023-06-26T12:12:03;3.00;3.00;2.00
75960;PMS7003;64644;48.914;2.254;2023-06-26T12:14:29;2.75;2.75;2.00
75960;PMS7003;64644;48.914;2.254;2023-06-26T12:16:56;6.25;3.50;2.75
75960;PMS7003;64644;48.914;2.254;2023-06-26T12:19:29;3.25;3.25;2.00
75960;PMS7003;64644;48.914;2.254;2023-06-26T12:21:54;3.50;3.00;2.50
75960;PMS7003;64644;48.914;2.254;2023-06-26T12:24:23;3.25;2.25;1.25
75960;PMS7003;64644;48.914;2.254;2023-06-26T12:26:50;2.25;1.50;1.25
75960;PMS7003;64644;48.914;2.254;2023-06-26T12:29:18;3.00;3.00;2.00
75960;PMS7003;64644;48.914;2.254;2023-06-26T12:31:46;2.75;2.75;2.00
75960;PMS7003;64644;48.914;2.254;2023-06-26T12:34:15;3.75;3.75;2.75
75960;PMS7003;64644;48.914;2.254;2023-06-26T12:36:46;3.00;3.00;2.75
75960;PMS7003;64644;48.914;2.254;2023-06-26T12:39:15;5.00;3.25;3.00
75960;PMS7003;64644;48.914;2.254;2023-06-26T12:41:54;5.00;5.00;2.75
75960;PMS7003;64644;48.914;2.254;2023-06-26T12:44:26;5.00;2.50;2.25
75960;PMS7003;64644;48.914;2.254;2023-06-26T12:46:54;2.50;2.50;2.25
75960;PMS7003;64644;48.914;2.254;2023-06-26T12:49:30;4.00;3.25;3.00
75960;PMS7003;64644;48.914;2.254;2023-06-26T12:51:58;4.00;3.00;3.00
75960;PMS7003;64644;48.914;2.254;2023-06-26T12:54:24;5.00;5.00;4.00
75960;PMS7003;64644;48.914;2.254;2023-06-26T12:56:49;4.00;4.00;3.00
75960;PMS7003;64644;48.914;2.254;2023-06-26T12:59:15;6.50;4.00;4.00
75960;PMS7003;64644;48.914;2.254;2023-06-26T13:01:40;4.00;4.00;3.50
75960;PMS7003;64644;48.914;2.254;2023-06-26T13:04:06;7.25;7.25;6.00
75960;PMS7003;64644;48.914;2.254;2023-06-26T13:06:33;6.25;6.25;5.00
75960;PMS7003;64644;48.914;2.254;2023-06-26T13:08:58;7.25;6.25;5.00
75960;PMS7003;64644;48.914;2.254;2023-06-26T13:11:23;6.75;6.00;5.00
75960;PMS7003;64644;48.914;2.254;2023-06-26T13:13:49;4.50;4.00;3.25
75960;PMS7003;64644;48.914;2.254;2023-06-26T13:16:14;6.00;4.50;4.00
75960;PMS7003;64644;48.914;2.254;2023-06-26T13:18:40;5.25;5.25;3.50
75960;PMS7003;64644;48.914;2.254;2023-06-26T13:21:05;3.00;3.00;2.50
75960;PMS7003;64644;48.914;2.254;2023-06-26T13:23:30;6.50;4.00;3.25
75960;PMS7003;64644;48.914;2.254;2023-06-26T13:25:56;3.25;3.25;3.00
75960;PMS7003;64644;48.914;2.254;2023-06-26T13:28:21;4.50;3.25;2.25
75960;PMS7003;64644;48.914;2.254;2023-06-26T13:30:47;5.00;3.00;3.00
75960;PMS7003;64644;48.914;2.254;2023-06-26T13:33:12;4.00;4.00;3.50
75960;PMS7003;64644;48.914;2.254;2023-06-26T13:35:38;4.00;4.00;3.50
75960;PMS7003;64644;48.914;2.254;2023-06-26T13:38:03;3.75;3.75;3.00
75960;PMS7003;64644;48.914;2.254;2023-06-26T13:40:28;3.00;3.00;2.75
75960;PMS7003;64644;48.914;2.254;2023-06-26T13:42:54;3.50;3.50;2.25
75960;PMS7003;64644;48.914;2.254;2023-06-26T13:45:19;3.25;3.25;3.00
75960;PMS7003;64644;48.914;2.254;2023-06-26T13:47:44;2.50;2.50;1.50
75960;PMS7003;64644;48.914;2.254;2023-06-26T13:50:10;3.00;3.00;2.00
75960;PMS7003;64644;48.914;2.254;2023-06-26T13:52:35;2.75;2.50;2.00
75960;PMS7003;64644;48.914;2.254;2023-06-26T13:55:01;3.50;3.50;3.00
75960;PMS7003;64644;48.914;2.254;2023-06-26T13:57:29;2.75;2.75;2.00
75960;PMS7003;64644;48.914;2.254;2023-06-26T13:59:55;3.00;3.00;2.00
75960;PMS7003;64644;48.914;2.254;2023-06-26T14:02:21;2.25;2.00;2.00
75960;PMS7003;64644;48.914;2.254;2023-06-26T14:04:46;3.00;3.00;3.00
75960;PMS7003;64644;48.914;2.254;2023-06-26T14:07:12;3.00;3.00;2.00
75960;PMS7003;64644;48.914;2.254;2023-06-26T14:09:37;3.00;3.00;2.00
75960;PMS7003;64644;48.914;2.254;2023-06-26T14:12:03;3.50;3.50;2.00
75960;PMS7003;64644;48.914;2.254;2023-06-26T14:14:29;2.25;2.25;2.00
75960;PMS7003;64644;48.914;2.254;2023-06-26T14:16:54;2.25;2.00;1.00
75960;PMS7003;64644;48.914;2.254;2023-06-26T14:19:19;2.00;2.00;1.00
75960;PMS7003;64644;48.914;2.254;2023-06-26T14:21:44;2.50;1.75;1.25
75960;PMS7003;64644;48.914;2.254;2023-06-26T14:24:10;2.00;2.00;1.00
75960;PMS7003;64644;48.914;2.254;2023-06-26T14:26:35;2.50;2.50;1.00
75960;PMS7003;64644;48.914;2.254;2023-06-26T14:29:01;3.25;3.00;2.00
75960;PMS7003;64644;48.914;2.254;2023-06-26T14:31:27;3.00;3.00;2.75
75960;PMS7003;64644;48.914;2.254;2023-06-26T14:33:53;2.50;2.50;1.50
75960;PMS7003;64644;48.914;2.254;2023-06-26T14:36:18;3.50;3.50;2.00
75960;PMS7003;64644;48.914;2.254;2023-06-26T14:38:44;5.00;2.00;2.00
75960;PMS7003;64644;48.914;2.254;2023-06-26T14:41:09;2.00;2.00;2.00
75960;PMS7003;64644;48.914;2.254;2023-06-26T14:43:35;4.25;3.25;2.00